Time;durP1;ratioP1;P1;durP2;ratioP2;P2;SDS_P1;SDS_P2;PMS_P1;PMS_P2;Temp;Humidity;BMP_temperature;BMP_pressure;BME280_temperature;BME280_humidity;BME280_pressure;Samples;Min_cycle;Max_cycle;Signal;HPM_P1;HPM_P2
2023/01/26 14:11:17;;;;;;;25.17;15.05;;;;;;;1.11;77.54;101234.31;5028328;28;20088;-69
2023/01/26 14:14:27;;;;;;;31.50;19.45;;;;;;;1.27;77.35;101231.72;5018317;28;20121;-69
2023/01/26 14:17:49;;;;;;;24.70;16.27;;;;;;;1.29;77.65;101227.44;5030954;28;20104;-69
2023/01/26 14:21:20;;;;;;;25.40;17.15;;;;;;;0.96;80.18;101229.22;5032772;28;20087;-68
2023/01/26 14:24:40;;;;;;;25.42;16.67;;;;;;;0.93;80.55;101231.81;5025548;28;20051;-69
2023/01/26 14:27:44;;;;;;;24.90;15.68;;;;;;;1.06;80.17;101233.50;5040030;28;20558;-68
2023/01/26 14:30:56;;;;;;;24.00;17.42;;;;;;;1.16;80.05;101229.19;5054299;28;20044;-69
2023/01/26 14:33:59;;;;;;;23.27;15.52;;;;;;;1.02;80.29;101234.38;5056501;28;20044;-68
2023/01/26 14:37:16;;;;;;;27.42;17.75;;;;;;;0.54;82.42;101233.50;5056549;28;20567;-68
2023/01/26 14:40:22;;;;;;;25.92;17.70;;;;;;;0.71;82.74;101233.53;5056394;28;20106;-69
2023/01/26 14:43:26;;;;;;;26.23;17.63;;;;;;;0.76;82.59;101238.66;5043868;28;20043;-68
2023/01/26 14:46:49;;;;;;;25.35;17.98;;;;;;;0.66;82.91;101241.22;5056096;28;20048;-68
2023/01/26 14:49:58;;;;;;;28.55;18.48;;;;;;;0.48;84.47;101241.25;5056110;28;20067;-68
2023/01/26 14:53:03;;;;;;;27.13;18.75;;;;;;;0.74;84.21;101242.97;5056159;28;20117;-68
2023/01/26 14:56:16;;;;;;;28.95;19.05;;;;;;;0.83;83.72;101233.53;5056342;28;20098;-69
2023/01/26 14:59:24;;;;;;;28.98;19.83;;;;;;;0.94;83.49;101233.50;5056033;28;20044;-69
2023/01/26 15:02:36;;;;;;;27.50;18.95;;;;;;;0.84;84.61;101239.53;5043630;28;20051;-69
2023/01/26 15:05:43;;;;;;;27.13;17.30;;;;;;;1.11;83.74;101241.19;5055827;28;20630;-67
2023/01/26 15:09:03;;;;;;;28.35;19.73;;;;;;;0.61;86.02;101242.13;5055871;28;20513;-68
2023/01/26 15:12:15;;;;;;;27.15;17.90;;;;;;;0.74;85.58;101235.25;5035803;28;20529;-68
2023/01/26 15:15:29;;;;;;;29.05;18.17;;;;;;;0.92;85.45;101241.22;5035909;28;20422;-68
2023/01/26 15:18:36;;;;;;;29.00;18.65;;;;;;;0.87;85.61;101249.81;5023692;28;20121;-68
2023/01/26 15:21:45;;;;;;;26.55;17.05;;;;;;;1.04;84.92;101237.78;5035692;28;20048;-68
2023/01/26 15:25:14;;;;;;;26.10;17.05;;;;;;;0.98;85.54;101240.34;5023522;28;20083;-68
2023/01/26 15:28:22;;;;;;;26.17;18.20;;;;;;;1.13;84.53;101248.06;5035549;28;20132;-68
2023/01/26 15:31:32;;;;;;;25.75;17.55;;;;;;;1.23;83.83;101250.63;5035748;28;20052;-68
2023/01/26 15:34:37;;;;;;;29.73;19.40;;;;;;;1.17;83.89;101254.91;5035702;28;20111;-70
2023/01/26 15:37:40;;;;;;;30.33;20.33;;;;;;;0.99;85.17;101244.66;5035659;28;20116;-68
2023/01/26 15:40:44;;;;;;;29.73;19.50;;;;;;;1.10;85.23;101253.22;5035143;28;20115;-69
2023/01/26 15:43:47;;;;;;;30.23;18.35;;;;;;;1.03;85.17;101254.09;5033309;28;20561;-67
2023/01/26 15:46:51;;;;;;;29.95;18.77;;;;;;;1.17;85.00;101252.34;5035234;28;20071;-68
2023/01/26 15:49:56;;;;;;;28.88;18.45;;;;;;;1.00;85.57;101248.94;5022935;28;20099;-67
2023/01/26 15:52:59;;;;;;;31.08;19.83;;;;;;;0.92;85.58;101248.09;5034869;28;20128;-69
2023/01/26 15:56:03;;;;;;;30.70;19.83;;;;;;;1.10;85.28;101248.06;5029546;28;20502;-67
2023/01/26 15:59:07;;;;;;;37.10;21.55;;;;;;;1.20;84.91;101255.78;5039703;28;20039;-67
2023/01/26 16:02:16;;;;;;;33.60;20.83;;;;;;;1.30;84.86;101260.03;5053365;28;20055;-68
2023/01/26 16:05:23;;;;;;;30.20;19.42;;;;;;;1.30;84.37;101260.91;5053906;28;20040;-67
2023/01/26 16:08:29;;;;;;;33.63;20.05;;;;;;;1.32;83.97;101248.88;5054350;28;20126;-67
2023/01/26 16:11:42;;;;;;;35.55;21.58;;;;;;;1.23;84.01;101248.06;5054578;28;20097;-67
2023/01/26 16:14:46;;;;;;;34.08;20.77;;;;;;;1.26;83.89;101250.63;5054580;28;20052;-67
2023/01/26 16:17:49;;;;;;;34.65;20.60;;;;;;;0.99;84.67;101248.94;5054430;28;20052;-68
2023/01/26 16:20:53;;;;;;;34.15;20.83;;;;;;;0.91;85.70;101248.97;5054528;28;20052;-67
2023/01/26 16:23:56;;;;;;;36.70;21.10;;;;;;;0.76;86.13;101252.38;5054531;28;20047;-67
2023/01/26 16:26:59;;;;;;;37.13;21.42;;;;;;;0.69;86.56;101248.97;5054406;28;20044;-67
2023/01/26 16:30:03;;;;;;;37.63;22.77;;;;;;;0.71;87.63;101245.56;5054482;28;20048;-67
2023/01/26 16:33:10;;;;;;;35.97;22.83;;;;;;;0.97;86.50;101246.38;5041882;28;20063;-67
2023/01/26 16:36:15;;;;;;;33.83;20.15;;;;;;;1.05;85.82;101251.50;5054260;28;20052;-70
2023/01/26 16:39:20;;;;;;;34.10;20.60;;;;;;;1.14;85.32;101244.63;5031335;28;20100;-67
2023/01/26 16:42:28;;;;;;;35.08;21.63;;;;;;;1.23;85.05;101250.63;5054152;28;20091;-67
2023/01/26 16:45:35;;;;;;;34.03;20.67;;;;;;;1.26;84.97;101250.63;5042355;28;20182;-67
2023/01/26 16:48:53;;;;;;;32.28;20.33;;;;;;;1.28;85.13;101251.47;5053951;28;20067;-67
2023/01/26 16:52:08;;;;;;;31.00;19.90;;;;;;;1.27;85.36;101258.31;5030563;28;20048;-67
2023/01/26 16:55:15;;;;;;;34.60;20.38;;;;;;;1.28;85.51;101243.75;5053534;28;20099;-67
2023/01/26 16:58:20;;;;;;;36.25;21.23;;;;;;;1.34;85.60;101243.72;5041260;28;20099;-67
2023/01/26 17:01:27;;;;;;;37.47;22.88;;;;;;;1.32;85.59;101245.44;5020259;28;20057;-67
2023/01/26 17:04:31;;;;;;;36.65;21.58;;;;;;;1.31;85.54;101243.75;5033758;28;20406;-67
2023/01/26 17:07:35;;;;;;;37.95;22.30;;;;;;;1.25;86.26;101246.34;5033342;28;20068;-67
2023/01/26 17:10:38;;;;;;;;;;;;;;;1.20;86.88;101248.91;5020947;28;20086;-67
2023/01/26 17:13:44;;;;;;;32.80;20.27;;;;;;;1.21;87.15;101244.59;5033384;28;19935;-67
2023/01/26 17:16:48;;;;;;;40.20;22.73;;;;;;;1.27;86.88;101254.91;5021224;28;20048;-67
2023/01/26 17:19:54;;;;;;;37.97;22.52;;;;;;;1.26;86.88;101248.03;5033133;28;20466;-67
2023/01/26 17:22:58;;;;;;;34.47;21.98;;;;;;;1.28;87.05;101251.47;5033136;28;20509;-67
2023/01/26 17:26:02;;;;;;;36.58;24.90;;;;;;;1.28;87.32;101251.47;5011882;28;20060;-66
2023/01/26 17:29:07;;;;;;;33.95;22.23;;;;;;;1.24;87.47;101240.31;5032609;28;20044;-66
2023/01/26 17:32:10;;;;;;;33.58;21.00;;;;;;;1.28;87.54;101247.19;5020599;28;20115;-67
2023/01/26 17:35:15;;;;;;;34.58;20.25;;;;;;;1.30;87.26;101244.59;5033306;28;20064;-67
2023/01/26 17:38:26;;;;;;;34.88;20.73;;;;;;;1.32;87.73;101232.56;5005011;28;20502;-67
2023/01/26 17:42:00;;;;;;;32.80;19.92;;;;;;;1.28;87.45;101236.88;5032545;28;20112;-66
2023/01/26 17:45:05;;;;;;;32.25;20.27;;;;;;;1.30;87.51;101240.28;5032141;28;20063;-65
2023/01/26 17:48:09;;;;;;;30.55;20.92;;;;;;;1.22;88.08;101247.19;5032582;28;20486;-67
2023/01/26 17:51:18;;;;;;;29.27;21.65;;;;;;;1.27;88.03;101245.44;5032360;28;20048;-66
2023/01/26 17:54:23;;;;;;;32.90;22.17;;;;;;;1.28;87.84;101238.59;5031422;28;20092;-66
2023/01/26 17:57:28;;;;;;;34.28;22.98;;;;;;;1.31;88.27;101238.59;5032496;28;20042;-66
2023/01/26 18:00:31;;;;;;;38.35;24.05;;;;;;;1.30;87.81;101237.72;5031902;28;20113;-66
2023/01/26 18:03:38;;;;;;;;;;;;;;;1.27;88.36;101245.44;5030830;28;20485;-66
2023/01/26 18:06:44;;;;;;;34.72;21.13;;;;;;;1.29;88.45;101237.72;5029676;28;19944;-66
2023/01/26 18:09:48;;;;;;;35.65;24.02;;;;;;;1.26;88.23;101253.19;5034754;28;20356;-66
2023/01/26 18:12:57;;;;;;;35.30;21.92;;;;;;;1.30;88.03;101244.59;5038304;28;20170;-67
2023/01/26 18:16:04;;;;;;;38.47;23.73;;;;;;;1.29;88.28;101250.63;5051887;28;20052;-68
2023/01/26 18:19:09;;;;;;;37.65;22.88;;;;;;;1.23;88.79;101258.34;5052245;28;20106;-69
2023/01/26 18:22:13;;;;;;;38.22;23.83;;;;;;;1.26;88.91;101250.63;5052006;28;20048;-68
2023/01/26 18:25:21;;;;;;;44.97;28.48;;;;;;;1.29;88.52;101248.03;5052116;28;20079;-69
2023/01/26 18:28:25;;;;;;;45.00;26.83;;;;;;;1.29;88.57;101254.03;5052266;28;20039;-67
2023/01/26 18:31:33;;;;;;;33.75;21.17;;;;;;;1.29;88.42;101253.19;5046631;28;20048;-67
2023/01/26 18:34:42;;;;;;;38.88;23.42;;;;;;;1.30;89.05;101253.16;5040250;28;20102;-67
2023/01/26 18:37:46;;;;;;;39.22;24.15;;;;;;;1.36;88.86;101244.56;5052153;28;20039;-68
2023/01/26 18:40:49;;;;;;;33.00;20.92;;;;;;;1.36;88.65;101257.47;5052268;28;20052;-70
2023/01/26 18:43:56;;;;;;;37.10;24.15;;;;;;;1.35;89.14;101258.31;5052198;28;20083;-68
2023/01/26 18:46:59;;;;;;;42.45;25.23;;;;;;;1.39;88.84;101262.59;5051909;28;20052;-68
2023/01/26 18:50:04;;;;;;;35.20;20.80;;;;;;;1.36;88.71;101254.88;5052181;28;20126;-68
2023/01/26 18:53:07;;;;;;;31.60;19.63;;;;;;;1.34;88.83;101252.31;5039767;28;20075;-68
2023/01/26 18:56:13;;;;;;;35.45;22.48;;;;;;;1.36;88.96;101250.59;5039900;28;20055;-68
2023/01/26 18:59:17;;;;;;;32.50;21.00;;;;;;;1.37;88.91;101261.75;5028185;28;20055;-68
2023/01/26 19:02:21;;;;;;;35.58;21.20;;;;;;;1.40;89.10;101254.00;5051901;28;20048;-68
2023/01/26 19:05:24;;;;;;;33.50;20.13;;;;;;;1.38;88.89;101253.16;5051605;28;20116;-68
2023/01/26 19:08:28;;;;;;;33.42;19.80;;;;;;;1.34;89.32;101254.91;5051450;28;20083;-68
2023/01/26 19:11:34;;;;;;;31.30;20.05;;;;;;;1.33;89.06;101257.47;5051704;28;20056;-68
2023/01/26 19:14:37;;;;;;;30.52;18.58;;;;;;;1.34;89.15;101261.75;5051626;28;20048;-68
2023/01/26 19:17:43;;;;;;;33.90;20.23;;;;;;;1.31;89.38;101246.31;5054710;28;20095;-68
2023/01/26 19:21:02;;;;;;;29.13;18.75;;;;;;;1.33;89.53;101247.16;5055359;28;20044;-68
2023/01/26 19:24:07;;;;;;;30.73;18.65;;;;;;;1.32;89.40;101238.56;5054935;28;20102;-68
2023/01/26 19:27:16;;;;;;;28.58;19.50;;;;;;;1.33;89.68;101242.00;5035379;28;20060;-67
2023/01/26 19:30:23;;;;;;;35.08;19.33;;;;;;;1.31;89.32;101242.03;5042857;28;20075;-68
2023/01/26 19:33:29;;;;;;;28.67;16.92;;;;;;;1.36;89.72;101244.56;5042621;28;20060;-68
2023/01/26 19:36:35;;;;;;;30.92;18.20;;;;;;;1.36;89.25;101249.72;5055148;28;20087;-68
2023/01/26 19:39:38;;;;;;;28.90;18.25;;;;;;;1.20;90.40;101242.91;5054317;28;20040;-69
2023/01/26 19:42:42;;;;;;;28.85;18.05;;;;;;;1.30;90.21;101244.59;5054788;28;20134;-69
2023/01/26 19:45:54;;;;;;;28.92;17.52;;;;;;;1.34;89.88;101246.28;5051824;28;20403;-69
2023/01/26 19:48:59;;;;;;;28.08;17.95;;;;;;;1.34;89.91;101244.59;5054996;28;20076;-69
2023/01/26 19:52:04;;;;;;;31.25;20.15;;;;;;;1.31;89.71;101246.31;5055142;28;20107;-68
2023/01/26 19:55:07;;;;;;;;;;;;;;;1.28;90.45;101248.91;5055598;28;20047;-68
2023/01/26 19:58:10;;;;;;;38.47;23.05;;;;;;;1.34;89.93;101242.03;5054777;28;19919;-70
2023/01/26 20:01:14;;;;;;;39.53;25.08;;;;;;;1.41;90.18;101242.84;5054918;28;20095;-69
2023/01/26 20:04:24;;;;;;;38.83;25.27;;;;;;;1.36;89.92;101242.00;5054822;28;20191;-69
2023/01/26 20:07:32;;;;;;;33.65;24.33;;;;;;;1.41;89.92;101242.00;5043627;28;20505;-69
2023/01/26 20:10:41;;;;;;;39.03;24.05;;;;;;;1.44;89.75;101237.69;5038039;28;20095;-69
2023/01/26 20:13:45;;;;;;;39.17;21.52;;;;;;;1.42;90.03;101236.81;5055551;28;20102;-69
2023/01/26 20:16:49;;;;;;;28.92;19.27;;;;;;;1.42;89.94;101236.81;5039776;28;20079;-69
2023/01/26 20:19:53;;;;;;;32.30;20.55;;;;;;;1.44;89.67;101237.69;5045422;28;20044;-69
2023/01/26 20:22:56;;;;;;;27.02;17.48;;;;;;;1.38;90.17;101235.13;5059064;28;20109;-69
2023/01/26 20:26:08;;;;;;;24.17;15.40;;;;;;;1.47;89.67;101237.69;5057574;28;20123;-68
2023/01/26 20:29:18;;;;;;;24.67;16.55;;;;;;;1.46;90.02;101240.25;5052251;28;20110;-69
2023/01/26 20:32:23;;;;;;;23.90;15.45;;;;;;;1.43;89.98;101241.09;5041830;28;20095;-70
2023/01/26 20:35:26;;;;;;;;;;;;;;;1.41;89.77;101237.69;5054592;28;20459;-69
2023/01/26 20:38:30;;;;;;;26.58;16.83;;;;;;;1.39;90.02;101234.25;5054068;28;20047;-68
2023/01/26 20:41:34;;;;;;;21.58;14.43;;;;;;;1.44;90.10;101232.53;5053996;28;20525;-69
2023/01/26 20:44:38;;;;;;;27.00;17.27;;;;;;;1.49;89.93;101240.25;5041691;28;20051;-69
2023/01/26 20:47:48;;;;;;;24.02;15.77;;;;;;;1.44;89.98;101227.38;5053869;28;20072;-69
2023/01/26 20:50:52;;;;;;;25.42;16.45;;;;;;;1.41;89.98;101223.97;5053785;28;20414;-69
2023/01/26 20:53:56;;;;;;;24.67;17.20;;;;;;;1.39;90.36;101226.53;5053483;28;20138;-69
2023/01/26 20:56:59;;;;;;;23.85;14.77;;;;;;;1.44;90.35;101222.22;5053671;28;20040;-69
2023/01/26 21:00:04;;;;;;;30.48;21.30;;;;;;;1.49;89.82;101220.47;5053643;28;20043;-69
2023/01/26 21:03:07;;;;;;;24.67;18.00;;;;;;;1.51;89.82;101226.50;5053495;28;20059;-69
2023/01/26 21:06:13;;;;;;;23.98;16.25;;;;;;;1.49;89.69;101220.47;5053726;28;20075;-69
2023/01/26 21:09:17;;;;;;;26.67;18.02;;;;;;;1.47;90.23;101217.06;5053309;28;20075;-69
2023/01/26 21:12:21;;;;;;;22.60;16.20;;;;;;;1.49;89.94;101220.47;5053575;28;20052;-69
2023/01/26 21:15:24;;;;;;;30.48;17.83;;;;;;;1.44;90.06;101214.50;5040911;28;20118;-68
2023/01/26 21:18:55;;;;;;;29.65;17.75;;;;;;;1.44;90.04;101217.06;5053203;28;20128;-70
2023/01/26 21:22:22;;;;;;;26.30;17.13;;;;;;;1.48;90.24;101208.47;5041081;28;20036;-69
2023/01/26 21:25:26;;;;;;;28.52;16.85;;;;;;;1.46;90.24;101194.72;5053249;28;20080;-69
2023/01/26 21:28:32;;;;;;;23.70;16.23;;;;;;;1.46;90.33;101197.28;5048400;28;20178;-69
2023/01/26 21:31:35;;;;;;;26.38;15.77;;;;;;;1.44;90.20;101193.88;5052244;28;20098;-69
2023/01/26 21:34:39;;;;;;;25.75;16.58;;;;;;;1.47;90.43;101188.72;5060591;28;20588;-69
2023/01/26 21:37:47;;;;;;;25.17;16.67;;;;;;;1.49;90.40;101194.69;5072924;28;20051;-69
2023/01/26 21:41:54;;;;;;;27.95;18.45;;;;;;;1.47;90.76;101191.28;5072292;28;20055;-69
2023/01/26 21:45:51;;;;;;;26.23;16.40;;;;;;;1.53;90.37;101191.28;5072827;28;20421;-69
2023/01/26 21:54:40;;;;;;;26.85;16.27;;;;;;;1.47;90.58;101183.56;5072781;28;20098;-70
2023/01/26 22:01:41;;;;;;;27.60;15.98;;;;;;;1.50;90.28;101175.81;5072450;28;20070;-70
2023/01/26 22:04:51;;;;;;;27.40;17.27;;;;;;;1.52;90.42;101181.81;5072731;28;20040;-69
2023/01/26 22:07:54;;;;;;;23.52;15.40;;;;;;;1.49;90.64;101174.09;5048706;28;20083;-69
2023/01/26 22:10:57;;;;;;;;;;;;;;;1.48;90.52;101174.09;5072881;28;20051;-69
2023/01/26 22:14:01;;;;;;;24.52;15.75;;;;;;;1.47;90.42;101173.25;5060379;28;20245;-69
2023/01/26 22:17:04;;;;;;;27.05;16.50;;;;;;;1.46;90.67;101176.66;5072605;28;20040;-69
2023/01/26 22:20:08;;;;;;;23.98;14.70;;;;;;;1.47;90.83;101168.09;5072322;28;20063;-69
2023/01/26 22:23:12;;;;;;;20.35;14.77;;;;;;;1.43;90.49;101168.94;5072304;28;20049;-69
2023/01/26 22:26:21;;;;;;;20.10;13.68;;;;;;;1.44;91.00;101173.25;5072350;28;20126;-68
2023/01/26 22:29:24;;;;;;;24.15;14.07;;;;;;;1.44;90.65;101173.25;5072380;28;20567;-68
2023/01/26 22:32:27;;;;;;;23.25;14.98;;;;;;;1.43;91.04;101174.09;5072347;28;20048;-68
2023/01/26 22:35:32;;;;;;;22.27;14.45;;;;;;;1.42;91.02;101176.72;5072408;28;20047;-69
2023/01/26 22:38:36;;;;;;;23.35;15.05;;;;;;;1.42;91.22;101169.81;5071220;28;20094;-69
2023/01/26 22:41:39;;;;;;;20.42;14.30;;;;;;;1.47;90.80;101167.22;5072510;28;20071;-69
2023/01/26 22:44:43;;;;;;;24.55;15.23;;;;;;;1.50;90.75;101174.94;5059723;28;20043;-69
2023/01/26 22:47:47;;;;;;;23.63;16.58;;;;;;;1.48;90.90;101172.38;5072123;28;20043;-69
2023/01/26 22:50:51;;;;;;;24.02;16.73;;;;;;;1.50;90.99;101165.50;5072626;28;20460;-69
2023/01/26 22:53:56;;;;;;;30.92;20.52;;;;;;;1.53;90.70;101170.66;5076445;28;20516;-69
2023/01/26 22:57:00;;;;;;;35.30;21.70;;;;;;;1.53;90.98;101170.66;5076296;28;20553;-69
2023/01/26 23:00:05;;;;;;;27.20;17.77;;;;;;;1.58;90.77;101171.47;5076069;28;20056;-69
2023/01/26 23:03:08;;;;;;;23.80;15.38;;;;;;;1.54;90.78;101169.78;5063430;28;20039;-69
2023/01/26 23:06:13;;;;;;;25.42;16.58;;;;;;;1.58;90.60;101170.63;5075829;28;20094;-68
2023/01/26 23:09:17;;;;;;;25.65;17.25;;;;;;;1.62;90.61;101168.00;5075429;28;20174;-69
2023/01/26 23:12:34;;;;;;;29.45;16.88;;;;;;;1.57;90.87;101164.59;5075725;28;20079;-68
2023/01/26 23:15:38;;;;;;;28.35;19.45;;;;;;;1.62;91.03;101168.00;5075946;28;20098;-68
2023/01/26 23:18:42;;;;;;;26.65;16.52;;;;;;;1.62;90.48;101157.69;5075630;28;20035;-69
2023/01/26 23:21:45;;;;;;;23.83;14.15;;;;;;;1.61;90.89;101157.72;5075357;28;20067;-69
2023/01/26 23:25:49;;;;;;;18.00;11.73;;;;;;;1.60;90.58;101156.84;5075707;28;20126;-69
2023/01/26 23:28:11;;;;;;;27.13;16.30;;;;;;;1.62;90.82;101151.69;5075338;28;20089;-69
2023/01/26 23:31:16;;;;;;;24.15;14.93;;;;;;;1.63;90.57;101151.69;5075465;28;20464;-69
2023/01/26 23:34:20;;;;;;;26.88;17.50;;;;;;;1.62;91.21;101149.94;5075267;28;20055;-69
2023/01/26 23:37:23;;;;;;;28.75;18.23;;;;;;;1.62;90.88;101143.94;5075283;28;20410;-69
2023/01/26 23:40:26;;;;;;;25.38;17.77;;;;;;;1.67;91.00;101147.38;5073989;28;20093;-69
2023/01/26 23:43:30;;;;;;;23.38;15.27;;;;;;;1.68;90.65;101140.47;5074023;28;20049;-69
2023/01/26 23:46:34;;;;;;;24.67;15.50;;;;;;;1.63;91.10;101145.69;5075043;28;20094;-69
2023/01/26 23:49:37;;;;;;;40.35;17.20;;;;;;;1.62;90.88;101147.38;5075219;28;20120;-69
2023/01/26 23:52:41;;;;;;;22.38;16.17;;;;;;;1.61;90.94;101143.09;5074983;28;20511;-69
2023/01/26 23:55:45;;;;;;;24.48;16.73;;;;;;;1.59;91.53;101152.53;5075286;28;20055;-69
2023/01/26 23:58:49;;;;;;;26.27;16.60;;;;;;;1.58;91.23;101152.56;5062867;28;20043;-69
